createdAt,value
2023-01-29T01:21:22.846Z,100518.47
2023-01-29T01:23:56.031Z,100516.33
2023-01-29T01:26:29.706Z,100514.08
2023-01-29T01:29:02.590Z,100515.41
2023-01-29T01:31:35.229Z,100516.30
2023-01-29T01:34:07.693Z,100516.73
2023-01-29T01:36:40.752Z,100515.98
2023-01-29T01:39:13.078Z,100520.66
2023-01-29T01:41:46.652Z,100516.75
2023-01-29T01:44:55.169Z,100511.13
2023-01-29T01:47:49.490Z,100517.68
2023-01-29T01:50:29.820Z,100518.88
2023-01-29T01:53:13.865Z,100518.41
2023-01-29T01:56:02.169Z,100520.12
2023-01-29T01:58:42.072Z,100512.56
2023-01-29T02:01:15.222Z,100513.84
2023-01-29T02:04:33.509Z,100518.72
2023-01-29T02:07:25.331Z,100513.41
2023-01-29T02:10:13.795Z,100525.64
2023-01-29T02:12:47.080Z,100533.53
2023-01-29T02:15:20.994Z,100523.74
2023-01-29T02:17:53.387Z,100524.98
2023-01-29T02:20:32.012Z,100526.67
2023-01-29T02:23:38.186Z,100521.45
2023-01-29T02:26:34.386Z,100522.20
2023-01-29T02:29:30.679Z,100527.03
2023-01-29T02:32:20.144Z,100524.95
2023-01-29T02:35:23.344Z,100525.39
2023-01-29T02:38:32.509Z,100532.08
2023-01-29T02:41:21.405Z,100524.11
2023-01-29T02:44:04.119Z,100522.77
2023-01-29T02:46:58.891Z,100531.36
2023-01-29T02:49:47.906Z,100534.10
2023-01-29T02:52:26.167Z,100530.20
2023-01-29T02:55:05.045Z,100533.27
2023-01-29T02:57:42.096Z,100524.44
2023-01-29T03:00:19.663Z,100527.54
2023-01-29T03:03:17.379Z,100528.74
2023-01-29T03:06:08.912Z,100528.66
2023-01-29T03:09:04.002Z,100529.38
2023-01-29T03:11:40.787Z,100527.97
2023-01-29T03:14:24.770Z,100523.36
2023-01-29T03:16:57.145Z,100525.09
2023-01-29T03:19:41.139Z,100521.63
2023-01-29T03:22:16.820Z,100516.70
2023-01-29T03:25:11.605Z,100521.98
2023-01-29T03:28:17.381Z,100522.60
2023-01-29T03:31:13.340Z,100520.38
2023-01-29T03:34:10.114Z,100515.37
2023-01-29T03:36:50.529Z,100515.33
2023-01-29T03:39:23.142Z,100519.37
2023-01-29T03:42:30.807Z,100518.13
2023-01-29T03:45:47.400Z,100511.87
2023-01-29T03:48:59.950Z,100510.51
2023-01-29T03:51:41.713Z,100512.20
2023-01-29T03:54:34.156Z,100514.85
2023-01-29T03:57:26.761Z,100513.12
2023-01-29T04:00:30.214Z,100519.59
2023-01-29T04:03:15.580Z,100523.09
2023-01-29T04:06:09.381Z,100525.66
2023-01-29T04:09:20.033Z,100521.98
2023-01-29T04:12:00.403Z,100518.48
2023-01-29T04:14:33.515Z,100516.75
2023-01-29T04:17:23.715Z,100522.75
2023-01-29T04:20:03.691Z,100512.99
2023-01-29T04:22:38.522Z,100512.91
2023-01-29T04:25:14.352Z,100512.38
2023-01-29T04:28:08.847Z,100514.77
2023-01-29T04:31:03.381Z,100516.36
2023-01-29T04:37:05.580Z,100512.50
2023-01-29T04:40:09.044Z,100518.05
2023-01-29T04:42:58.636Z,100512.86
2023-01-29T04:45:41.937Z,100507.18
2023-01-29T04:48:36.868Z,100511.13
2023-01-29T04:51:43.656Z,100517.61
2023-01-29T04:54:43.450Z,100521.98
2023-01-29T04:57:47.990Z,100518.94
2023-01-29T05:00:28.887Z,100522.57
2023-01-29T05:03:02.142Z,100526.38
2023-01-29T05:05:34.819Z,100522.79
2023-01-29T05:08:07.334Z,100523.14
2023-01-29T05:10:40.350Z,100520.92
2023-01-29T05:13:15.251Z,100531.20
2023-01-29T05:15:51.876Z,100523.72
2023-01-29T05:18:24.305Z,100519.82
2023-01-29T05:20:56.752Z,100527.35
2023-01-29T05:23:29.192Z,100528.32
2023-01-29T05:26:01.601Z,100525.66
2023-01-29T05:28:34.351Z,100524.87
2023-01-29T05:31:06.897Z,100532.49
2023-01-29T05:33:39.745Z,100528.99
2023-01-29T05:36:12.237Z,100529.95
2023-01-29T05:38:44.724Z,100536.17
2023-01-29T05:41:17.470Z,100525.49
2023-01-29T05:43:50.131Z,100517.95
2023-01-29T05:46:22.757Z,100533.47
2023-01-29T05:48:55.614Z,100538.30
2023-01-29T05:51:27.994Z,100543.09
2023-01-29T05:54:00.929Z,100541.93
2023-01-29T05:56:33.427Z,100539.80
2023-01-29T05:59:06.007Z,100532.75
2023-01-29T06:01:39.205Z,100535.23
2023-01-29T06:04:11.797Z,100537.20
2023-01-29T06:06:44.233Z,100537.42
2023-01-29T06:09:16.690Z,100532.85
2023-01-29T06:11:49.010Z,100524.30
2023-01-29T06:14:22.456Z,100529.63
2023-01-29T06:16:55.049Z,100526.20
2023-01-29T06:19:27.663Z,100533.78
2023-01-29T06:22:00.387Z,100530.64
2023-01-29T06:24:33.245Z,100538.66
2023-01-29T06:27:05.811Z,100538.62
2023-01-29T06:29:39.937Z,100538.62
2023-01-29T06:32:12.445Z,100531.20
2023-01-29T06:34:47.311Z,100536.53
2023-01-29T06:37:19.701Z,100541.64
2023-01-29T06:39:52.706Z,100537.52
2023-01-29T06:42:26.953Z,100541.45
2023-01-29T06:44:58.884Z,100540.56
2023-01-29T06:47:31.426Z,100540.34
2023-01-29T06:50:03.914Z,100544.30
2023-01-29T06:52:37.162Z,100545.58
2023-01-29T06:55:11.113Z,100546.73
2023-01-29T06:57:43.563Z,100543.84
2023-01-29T07:00:17.519Z,100537.88
2023-01-29T07:02:53.273Z,100537.80
2023-01-29T07:05:25.760Z,100537.70
2023-01-29T07:07:58.519Z,100532.14
2023-01-29T07:10:31.351Z,100522.82
2023-01-29T07:13:04.206Z,100521.84
2023-01-29T07:15:37.395Z,100524.59
2023-01-29T07:18:13.540Z,100520.99
2023-01-29T07:20:45.965Z,100524.94
2023-01-29T07:23:18.456Z,100528.69
2023-01-29T07:25:50.976Z,100526.62
2023-01-29T07:28:23.695Z,100531.02
2023-01-29T07:31:02.272Z,100536.63
2023-01-29T07:33:35.047Z,100534.32
2023-01-29T07:36:11.749Z,100538.07
2023-01-29T07:38:45.371Z,100532.98
2023-01-29T07:41:17.676Z,100539.50
2023-01-29T07:43:50.295Z,100535.45
2023-01-29T07:46:22.673Z,100534.97
2023-01-29T07:48:55.144Z,100533.69
2023-01-29T07:51:27.835Z,100537.28
2023-01-29T07:54:00.344Z,100529.19
2023-01-29T07:56:32.898Z,100539.34
2023-01-29T07:59:05.349Z,100540.48
2023-01-29T08:01:38.102Z,100535.94
2023-01-29T08:04:10.745Z,100548.17
2023-01-29T08:06:43.472Z,100547.62
2023-01-29T08:09:16.226Z,100546.74
2023-01-29T08:11:48.790Z,100540.48
2023-01-29T08:14:21.750Z,100532.32
2023-01-29T08:16:55.255Z,100539.31
2023-01-29T08:19:28.069Z,100532.30
2023-01-29T08:22:00.892Z,100532.30
2023-01-29T08:24:47.674Z,100535.09
2023-01-29T08:27:09.083Z,100535.77
2023-01-29T08:29:41.512Z,100535.66
2023-01-29T08:32:14.603Z,100542.50
2023-01-29T08:34:47.111Z,100545.13
2023-01-29T08:37:19.439Z,100542.73
2023-01-29T08:39:52.207Z,100545.23
2023-01-29T08:42:25.906Z,100542.00
2023-01-29T08:44:58.522Z,100538.34
2023-01-29T08:47:30.850Z,100539.22
2023-01-29T08:50:03.790Z,100543.62
2023-01-29T10:13:45.929Z,100479.32
2023-01-29T10:19:57.983Z,100471.52
2023-01-29T10:23:05.346Z,100464.34
2023-01-29T10:25:42.068Z,100462.86
2023-01-29T10:28:34.543Z,100459.14
2023-01-29T10:31:11.525Z,100453.55
2023-01-29T10:34:01.575Z,100444.88
2023-01-29T10:36:31.648Z,100438.58
2023-01-29T10:39:04.359Z,100442.30
2023-01-29T10:41:52.161Z,100438.53
2023-01-29T10:44:38.481Z,100437.30
2023-01-29T10:47:47.893Z,100436.80
2023-01-29T10:50:28.354Z,100439.48
2023-01-29T10:53:08.368Z,100433.52
2023-01-29T10:56:21.908Z,100420.54
2023-01-29T10:58:53.667Z,100419.44
2023-01-29T11:01:27.126Z,100414.82
2023-01-29T11:04:05.447Z,100404.89
2023-01-29T11:06:38.281Z,100410.09
2023-01-29T11:09:47.309Z,100404.45
2023-01-29T11:12:28.943Z,100405.10
2023-01-29T11:15:29.699Z,100399.75
2023-01-29T11:18:14.198Z,100400.67
2023-01-29T11:20:47.343Z,100405.10
2023-01-29T11:23:29.037Z,100406.09
2023-01-29T11:26:24.160Z,100406.20
2023-01-29T11:28:56.666Z,100399.52
2023-01-29T11:31:38.897Z,100393.21
2023-01-29T11:34:29.563Z,100394.55
2023-01-29T11:37:07.252Z,100398.25
2023-01-29T11:39:39.730Z,100393.06
2023-01-29T11:42:20.883Z,100402.50
2023-01-29T11:44:53.659Z,100398.42
2023-01-29T11:47:30.694Z,100399.45
2023-01-29T11:50:03.703Z,100394.25
2023-01-29T11:52:40.409Z,100389.94
2023-01-29T11:55:22.146Z,100378.20
2023-01-29T11:58:26.469Z,100379.92
2023-01-29T12:01:00.122Z,100386.53
2023-01-29T12:03:58.317Z,100379.84
2023-01-29T12:06:38.899Z,100378.43
2023-01-29T12:09:17.774Z,100382.06
2023-01-29T12:11:50.494Z,100377.78
2023-01-29T12:14:33.927Z,100383.47
2023-01-29T12:17:20.283Z,100372.84
2023-01-29T12:20:03.664Z,100365.66
2023-01-29T12:22:58.785Z,100377.47
2023-01-29T12:26:09.608Z,100372.13
2023-01-29T12:29:07.598Z,100370.33
2023-01-29T12:32:01.077Z,100377.47
2023-01-29T12:35:20.939Z,100376.94
2023-01-29T12:38:15.938Z,100369.76
2023-01-29T12:41:02.573Z,100366.09
2023-01-29T12:43:42.364Z,100363.95
2023-01-29T12:46:19.710Z,100368.61
2023-01-29T12:48:52.303Z,100358.36
2023-01-29T12:51:29.011Z,100366.01
2023-01-29T12:54:09.037Z,100358.91
2023-01-29T12:56:50.109Z,100362.14
2023-01-29T12:59:44.607Z,100356.38
2023-01-29T13:02:28.733Z,100362.45
2023-01-29T13:05:30.205Z,100362.76
2023-01-29T13:08:21.233Z,100366.55
2023-01-29T13:10:55.400Z,100362.53
2023-01-29T13:13:47.318Z,100351.83
2023-01-29T13:16:24.950Z,100355.45
2023-01-29T13:19:10.058Z,100361.04
2023-01-29T13:21:44.049Z,100356.22
2023-01-29T13:24:24.593Z,100357.10
2023-01-29T13:26:58.294Z,100358.06
2023-01-29T13:29:31.901Z,100358.06
2023-01-29T13:32:05.505Z,100354.05
2023-01-29T13:34:46.945Z,100357.87
2023-01-29T13:37:30.403Z,100357.95
2023-01-29T13:40:27.612Z,100355.53
2023-01-29T13:43:00.806Z,100350.72
2023-01-29T13:45:37.866Z,100356.30
2023-01-29T13:48:20.577Z,100347.36
2023-01-29T13:50:53.267Z,100353.17
2023-01-29T13:53:41.540Z,100359.55
2023-01-29T13:56:35.709Z,100357.48
2023-01-29T13:59:10.520Z,100360.31
2023-01-29T14:01:51.607Z,100359.05
2023-01-29T14:04:31.206Z,100353.39
2023-01-29T14:07:04.437Z,100349.06
2023-01-29T14:09:45.195Z,100350.06
2023-01-29T14:12:28.306Z,100349.98
2023-01-29T14:15:25.933Z,100347.31
2023-01-29T14:18:23.166Z,100343.30
2023-01-29T14:21:07.443Z,100335.84
2023-01-29T14:23:49.347Z,100334.17
2023-01-29T14:26:47.788Z,100325.84
2023-01-29T14:29:34.809Z,100338.36
2023-01-29T14:32:18.259Z,100335.34
2023-01-29T14:34:53.405Z,100332.67
2023-01-29T14:37:42.311Z,100338.98
2023-01-29T14:40:22.489Z,100341.27
2023-01-29T14:43:10.052Z,100340.54
2023-01-29T14:45:44.099Z,100349.73
2023-01-29T14:48:40.111Z,100350.48
2023-01-29T14:51:17.656Z,100345.63
2023-01-29T14:54:06.963Z,100360.48
2023-01-29T14:57:01.750Z,100355.37
2023-01-29T14:59:55.887Z,100354.11
2023-01-29T15:02:43.689Z,100352.84
2023-01-29T15:05:25.816Z,100362.20
2023-01-29T15:08:26.239Z,100367.16
2023-01-29T15:11:19.343Z,100361.39
2023-01-29T15:14:11.387Z,100365.26
2023-01-29T15:16:51.239Z,100356.78
2023-01-29T15:19:34.511Z,100358.84
2023-01-29T15:22:16.971Z,100364.58
2023-01-29T15:25:08.250Z,100358.43
2023-01-29T15:27:46.622Z,100359.23
2023-01-29T15:30:29.819Z,100372.21
2023-01-29T15:33:02.978Z,100366.06
2023-01-29T15:35:40.199Z,100369.62
2023-01-29T15:38:21.517Z,100363.77
2023-01-29T15:41:03.218Z,100366.14
2023-01-29T15:43:38.571Z,100366.21
2023-01-29T15:46:29.379Z,100366.74
2023-01-29T15:49:05.626Z,100373.77
2023-01-29T15:51:39.403Z,100377.36
2023-01-29T15:54:16.577Z,100379.89
2023-01-29T15:56:52.562Z,100378.09
2023-01-29T15:59:27.355Z,100370.39
2023-01-29T16:01:59.746Z,100368.20
2023-01-29T16:04:32.813Z,100371.41
2023-01-29T16:07:05.971Z,100373.77
2023-01-29T18:09:55.633Z,100347.51
2023-01-29T18:12:28.362Z,100336.09
2023-01-29T18:15:00.946Z,100335.25
2023-01-29T18:17:34.641Z,100341.58
2023-01-29T18:20:23.577Z,100331.69
2023-01-29T18:22:57.385Z,100337.98
2023-01-29T18:25:29.954Z,100335.45
2023-01-29T18:28:03.118Z,100324.77
2023-01-29T18:30:36.465Z,100325.23
2023-01-29T18:33:08.966Z,100333.25
2023-01-29T18:35:41.307Z,100338.59
2023-01-29T18:38:13.908Z,100335.04
2023-01-29T18:40:46.375Z,100335.45
2023-01-29T18:43:19.156Z,100342.45
2023-01-29T18:45:51.662Z,100334.89
2023-01-29T18:48:24.205Z,100339.92
2023-01-29T18:50:57.225Z,100338.80
2023-01-29T18:53:29.666Z,100331.28
2023-01-29T18:56:05.479Z,100331.28
2023-01-29T18:58:38.222Z,100334.20
2023-01-29T19:01:12.218Z,100338.66
2023-01-29T19:03:44.713Z,100342.73
2023-01-29T19:06:17.117Z,100340.62
2023-01-29T19:08:49.726Z,100341.40
2023-01-29T19:11:22.289Z,100343.13
2023-01-29T19:13:55.256Z,100349.55
2023-01-29T19:16:27.874Z,100347.09
2023-01-29T19:19:00.450Z,100345.91
2023-01-29T19:21:34.870Z,100343.80
2023-01-29T19:24:10.222Z,100350.68
2023-01-29T19:26:42.828Z,100340.28
2023-01-29T19:29:15.441Z,100337.47
2023-01-29T19:31:48.737Z,100336.66
2023-01-29T19:34:21.299Z,100338.42
2023-01-29T19:36:53.878Z,100329.92
2023-01-29T19:39:29.866Z,100330.66
2023-01-29T19:42:02.948Z,100328.94
2023-01-29T19:44:36.182Z,100330.80
2023-01-29T19:47:08.719Z,100323.88
2023-01-29T19:49:41.482Z,100321.48
2023-01-29T19:52:41.453Z,100317.23
2023-01-29T19:55:09.109Z,100315.77
2023-01-29T19:57:41.929Z,100314.28
2023-01-29T20:00:17.423Z,100311.05
2023-01-29T20:02:50.726Z,100316.46
2023-01-29T20:05:27.277Z,100315.63
2023-01-29T20:07:59.850Z,100316.53
2023-01-29T20:10:32.765Z,100312.14
2023-01-29T20:13:06.114Z,100312.14
2023-01-29T20:15:38.887Z,100314.88
2023-01-29T20:18:12.246Z,100316.74
2023-01-29T20:20:46.900Z,100312.28
2023-01-29T20:23:31.727Z,100312.67
2023-01-29T20:25:53.544Z,100312.21
2023-01-29T20:28:25.858Z,100313.09
2023-01-29T20:30:59.253Z,100321.09
2023-01-29T20:33:32.177Z,100322.02
2023-01-29T20:36:07.124Z,100320.22
2023-01-29T20:38:40.926Z,100317.09
2023-01-29T20:41:17.907Z,100317.34
2023-01-29T20:43:51.149Z,100320.78
2023-01-29T20:46:23.696Z,100315.86
2023-01-29T20:48:56.799Z,100314.45
2023-01-29T20:51:30.938Z,100314.45
2023-01-29T20:54:03.453Z,100314.84
2023-01-29T20:56:42.188Z,100316.04
2023-01-29T20:59:10.201Z,100313.90
2023-01-29T21:01:42.766Z,100316.15
2023-01-29T21:04:15.123Z,100322.30
2023-01-29T21:06:47.545Z,100308.70
2023-01-29T21:09:20.696Z,100304.83
2023-01-29T21:11:53.184Z,100307.72
2023-01-29T21:14:25.561Z,100306.70
2023-01-29T21:16:58.260Z,100302.63
2023-01-29T21:19:31.478Z,100299.53
2023-01-29T21:22:04.710Z,100297.21
2023-01-29T21:24:37.239Z,100294.05
2023-01-29T21:27:09.649Z,100297.73
2023-01-29T21:29:42.666Z,100292.30
2023-01-29T21:32:16.727Z,100298.16
2023-01-29T21:34:51.619Z,100292.82
2023-01-29T21:37:27.141Z,100290.02
2023-01-29T21:40:26.552Z,100299.84
2023-01-29T21:43:16.107Z,100296.69
2023-01-29T21:45:49.146Z,100298.58
2023-01-29T21:48:22.138Z,100296.44
2023-01-29T21:50:54.861Z,100291.10
2023-01-29T21:53:28.003Z,100289.38
2023-01-29T21:56:03.795Z,100289.77
2023-01-29T21:58:36.509Z,100289.77
2023-01-29T22:01:34.686Z,100282.08
2023-01-29T22:03:47.562Z,100276.67
2023-01-29T22:06:20.694Z,100280.28
2023-01-29T22:08:53.843Z,100281.16
2023-01-29T22:11:27.581Z,100275.33
